createdAt,value
2018-05-31T00:00:44.848Z,0.00
2018-05-31T00:02:38.326Z,0.00
2018-05-31T00:03:38.359Z,0.00
2018-05-31T00:05:31.829Z,0.00
2018-05-31T00:06:31.849Z,0.00
2018-05-31T00:08:25.332Z,0.00
2018-05-31T00:09:25.355Z,0.00
2018-05-31T00:11:18.836Z,0.00
2018-05-31T00:12:18.859Z,0.00
2018-05-31T00:14:12.338Z,0.00
2018-05-31T00:15:12.365Z,0.00
2018-05-31T00:17:05.845Z,0.00
2018-05-31T00:18:05.867Z,0.00
2018-05-31T00:19:59.415Z,0.00
2018-05-31T00:20:59.385Z,0.00
2018-05-31T00:22:52.899Z,0.00
2018-05-31T00:23:52.894Z,0.00
2018-05-31T00:24:52.928Z,0.00
2018-05-31T00:25:52.973Z,0.00
2018-05-31T00:26:53.008Z,0.00
2018-05-31T00:27:53.037Z,0.00
2018-05-31T00:28:53.068Z,0.00
2018-05-31T00:29:53.102Z,0.00
2018-05-31T00:30:53.153Z,0.00
2018-05-31T00:31:53.189Z,0.00
2018-05-31T00:32:53.219Z,0.00
2018-05-31T00:33:53.251Z,0.00
2018-05-31T00:34:53.283Z,0.00
2018-05-31T00:35:53.310Z,0.00
2018-05-31T00:36:53.358Z,0.00
2018-05-31T00:37:53.395Z,0.00
2018-05-31T00:38:53.424Z,0.00
2018-05-31T00:39:53.453Z,0.00
2018-05-31T00:40:53.502Z,0.00
2018-05-31T00:41:53.536Z,0.00
2018-05-31T00:42:53.561Z,0.00
2018-05-31T00:43:53.604Z,0.00
2018-05-31T00:44:53.649Z,0.00
2018-05-31T00:45:53.662Z,0.00
2018-05-31T00:46:53.707Z,0.00
2018-05-31T00:47:53.742Z,0.00
2018-05-31T00:48:53.782Z,0.00
2018-05-31T00:49:53.826Z,0.00
2018-05-31T00:50:53.850Z,0.00
2018-05-31T00:51:53.883Z,0.00
2018-05-31T00:52:53.900Z,0.00
2018-05-31T00:53:53.961Z,0.00
2018-05-31T00:54:53.988Z,0.00
2018-05-31T00:55:54.020Z,0.00
2018-05-31T00:56:54.077Z,0.00
2018-05-31T00:57:54.092Z,0.00
2018-05-31T00:58:54.141Z,0.00
2018-05-31T00:59:54.170Z,0.00
2018-05-31T01:00:54.201Z,0.00
2018-05-31T01:01:54.233Z,0.00
2018-05-31T01:02:54.286Z,0.00
2018-05-31T01:03:54.301Z,0.00
2018-05-31T01:04:54.371Z,0.00
2018-05-31T01:05:54.382Z,0.00
2018-05-31T01:06:54.404Z,0.00
2018-05-31T01:07:54.441Z,0.00
2018-05-31T01:08:54.475Z,0.00
2018-05-31T01:09:54.509Z,0.00
2018-05-31T01:10:54.549Z,0.00
2018-05-31T01:11:54.650Z,0.00
2018-05-31T01:12:54.626Z,0.00
2018-05-31T01:13:54.655Z,0.00
2018-05-31T01:14:54.687Z,0.00
2018-05-31T01:15:54.722Z,0.00
2018-05-31T01:16:54.763Z,0.00
2018-05-31T01:17:54.793Z,0.00
2018-05-31T01:18:54.836Z,0.00
2018-05-31T01:19:54.868Z,0.00
2018-05-31T01:20:54.901Z,0.00
2018-05-31T01:21:54.934Z,0.00
2018-05-31T01:22:54.971Z,0.00
2018-05-31T01:23:55.005Z,0.00
2018-05-31T01:24:55.041Z,0.00
2018-05-31T01:25:55.076Z,0.00
2018-05-31T01:26:55.113Z,0.00
2018-05-31T01:27:55.150Z,0.00
2018-05-31T01:28:55.184Z,0.00
2018-05-31T01:29:55.217Z,0.00
2018-05-31T01:30:55.256Z,0.00
2018-05-31T01:31:55.295Z,0.00
2018-05-31T01:32:55.329Z,0.00
2018-05-31T01:33:55.358Z,0.00
2018-05-31T01:34:55.394Z,0.00
2018-05-31T01:35:55.429Z,0.00
2018-05-31T01:36:55.465Z,0.00
2018-05-31T01:37:55.501Z,0.00
2018-05-31T01:38:55.535Z,0.00
2018-05-31T01:39:55.572Z,0.00
2018-05-31T01:40:55.607Z,0.00
2018-05-31T01:41:55.640Z,0.00
2018-05-31T01:42:55.679Z,0.00
2018-05-31T01:43:55.711Z,0.00
2018-05-31T01:44:55.747Z,0.00
2018-05-31T01:45:55.782Z,0.00
2018-05-31T01:46:55.817Z,0.00
2018-05-31T01:47:55.852Z,0.00
2018-05-31T01:48:55.890Z,0.00
2018-05-31T01:49:55.922Z,0.00
2018-05-31T01:50:55.959Z,0.00
2018-05-31T01:51:55.993Z,0.00
2018-05-31T01:52:56.029Z,0.00
2018-05-31T01:53:56.063Z,0.00
2018-05-31T01:54:56.099Z,0.00
2018-05-31T01:55:56.132Z,0.00
2018-05-31T01:56:56.169Z,0.00
2018-05-31T01:57:56.205Z,0.00
2018-05-31T01:58:56.247Z,0.00
2018-05-31T01:59:56.277Z,0.00
2018-05-31T02:00:56.311Z,0.00
2018-05-31T02:01:56.346Z,0.00
2018-05-31T02:02:56.379Z,0.00
2018-05-31T02:03:56.416Z,0.00
2018-05-31T02:04:56.452Z,0.00
2018-05-31T02:05:56.486Z,0.00
2018-05-31T02:06:56.526Z,0.00
2018-05-31T02:07:56.559Z,0.00
2018-05-31T02:08:56.593Z,0.00
2018-05-31T02:09:56.627Z,0.00
2018-05-31T02:10:56.664Z,0.00
2018-05-31T02:11:56.698Z,0.00
2018-05-31T02:12:56.740Z,0.00
2018-05-31T02:13:56.768Z,0.00
2018-05-31T02:14:56.805Z,0.00
2018-05-31T02:15:56.844Z,0.00
2018-05-31T02:16:56.874Z,0.00
2018-05-31T02:17:56.910Z,0.00
2018-05-31T02:18:56.945Z,0.00
2018-05-31T02:19:56.980Z,0.00
2018-05-31T02:20:57.016Z,0.00
2018-05-31T02:21:57.057Z,0.00
2018-05-31T02:22:57.087Z,0.00
2018-05-31T02:23:57.120Z,0.00
2018-05-31T02:24:57.156Z,0.00
2018-05-31T02:25:57.192Z,0.00
2018-05-31T02:26:57.226Z,0.00
2018-05-31T02:27:57.260Z,0.00
2018-05-31T02:28:57.298Z,0.00
2018-05-31T02:29:57.332Z,0.00
2018-05-31T02:30:57.367Z,0.00
2018-05-31T02:31:57.402Z,0.00
2018-05-31T02:32:57.438Z,0.00
2018-05-31T02:33:57.472Z,0.00
2018-05-31T02:34:57.509Z,0.00
2018-05-31T02:35:57.548Z,0.00
2018-05-31T02:36:57.579Z,0.00
2018-05-31T02:37:57.615Z,0.00
2018-05-31T02:38:57.650Z,0.00
2018-05-31T02:39:57.685Z,0.00
2018-05-31T02:40:57.719Z,0.00
2018-05-31T02:41:57.753Z,0.00
2018-05-31T02:42:57.791Z,0.00
2018-05-31T02:43:57.828Z,0.00
2018-05-31T02:44:57.861Z,0.00
2018-05-31T02:45:57.894Z,0.00
2018-05-31T02:46:57.929Z,0.00
2018-05-31T02:47:57.967Z,0.00
2018-05-31T02:48:57.997Z,0.00
2018-05-31T02:49:58.035Z,0.00
2018-05-31T02:50:58.070Z,0.00
2018-05-31T02:51:58.105Z,0.00
2018-05-31T02:52:58.140Z,0.00
2018-05-31T02:53:58.177Z,0.00
2018-05-31T02:54:58.213Z,0.00
2018-05-31T02:55:58.245Z,0.00
2018-05-31T02:56:58.282Z,0.00
2018-05-31T02:57:58.318Z,0.00
2018-05-31T02:58:58.351Z,0.00
2018-05-31T02:59:58.386Z,0.00
2018-05-31T03:00:58.425Z,0.00
2018-05-31T03:01:58.451Z,0.00
2018-05-31T03:02:58.540Z,0.00
2018-05-31T03:03:58.528Z,0.00
2018-05-31T03:04:58.584Z,0.00
2018-05-31T03:05:58.623Z,0.00
2018-05-31T03:06:58.632Z,0.00
2018-05-31T03:07:58.666Z,0.00
2018-05-31T03:08:58.747Z,0.00
2018-05-31T03:09:58.735Z,0.00
2018-05-31T03:10:58.777Z,0.00
2018-05-31T03:11:58.817Z,0.00
2018-05-31T03:12:58.835Z,0.00
2018-05-31T03:13:58.891Z,0.00
2018-05-31T03:14:58.913Z,0.00
2018-05-31T03:15:58.953Z,0.00
2018-05-31T03:16:58.983Z,0.00
2018-05-31T03:17:59.018Z,0.00
2018-05-31T03:18:59.093Z,0.00
2018-05-31T03:19:59.097Z,0.00
2018-05-31T03:20:59.140Z,0.00
2018-05-31T03:21:59.185Z,0.00
2018-05-31T03:22:59.197Z,0.00
2018-05-31T03:23:59.226Z,0.00
2018-05-31T03:24:59.265Z,0.00
2018-05-31T03:25:59.333Z,0.00
2018-05-31T03:26:59.380Z,0.00
2018-05-31T03:27:59.408Z,0.00
2018-05-31T03:28:59.406Z,0.00
2018-05-31T03:29:59.441Z,0.00
2018-05-31T03:30:59.477Z,0.00
2018-05-31T03:31:59.522Z,4.00
2018-05-31T03:32:59.574Z,4.00
2018-05-31T03:33:59.615Z,0.00
2018-05-31T03:34:59.633Z,0.00
2018-05-31T03:35:59.652Z,4.00
2018-05-31T03:36:59.678Z,0.00
2018-05-31T03:37:59.725Z,0.00
2018-05-31T03:38:59.757Z,0.00
2018-05-31T03:39:59.793Z,0.00
2018-05-31T03:40:59.828Z,0.00
2018-05-31T03:41:59.860Z,0.00
2018-05-31T03:42:59.927Z,0.00
2018-05-31T03:43:59.933Z,4.00
2018-05-31T03:44:59.968Z,4.00
2018-05-31T03:46:00.035Z,4.00
2018-05-31T03:47:00.038Z,4.00
2018-05-31T03:48:00.076Z,4.00
2018-05-31T03:49:00.109Z,4.00
2018-05-31T03:50:00.173Z,4.00
2018-05-31T03:51:00.181Z,4.00
2018-05-31T03:52:00.213Z,4.00
2018-05-31T03:53:00.251Z,4.00
2018-05-31T03:54:00.284Z,4.00
2018-05-31T03:55:00.319Z,4.00
2018-05-31T03:56:00.356Z,4.00
2018-05-31T03:57:00.390Z,4.00
2018-05-31T03:58:00.425Z,4.00
2018-05-31T03:59:00.462Z,4.00
2018-05-31T04:00:00.497Z,4.00
2018-05-31T04:01:00.538Z,4.00
2018-05-31T04:02:00.566Z,0.00
2018-05-31T04:03:00.601Z,0.00
2018-05-31T04:04:00.639Z,0.00
2018-05-31T04:05:00.672Z,4.00
2018-05-31T04:06:00.710Z,4.00
2018-05-31T04:07:00.744Z,4.00
2018-05-31T04:08:00.783Z,4.00
2018-05-31T04:09:00.812Z,0.00
2018-05-31T04:10:00.848Z,4.00
2018-05-31T04:11:00.883Z,4.00
2018-05-31T04:12:00.919Z,4.00
2018-05-31T04:13:00.978Z,4.00
2018-05-31T04:14:00.988Z,8.00
2018-05-31T04:15:01.026Z,4.00
2018-05-31T04:16:01.058Z,4.00
2018-05-31T04:17:01.094Z,4.00
2018-05-31T04:18:01.127Z,0.00
2018-05-31T04:19:01.165Z,0.00
2018-05-31T04:20:01.200Z,0.00
2018-05-31T04:21:01.235Z,0.00
2018-05-31T04:22:01.268Z,0.00
2018-05-31T04:23:01.310Z,0.00
2018-05-31T04:24:01.341Z,0.00
2018-05-31T04:25:01.377Z,0.00
2018-05-31T04:26:01.419Z,0.00
2018-05-31T04:27:01.445Z,0.00
2018-05-31T04:28:01.481Z,0.00
2018-05-31T04:29:01.520Z,0.00
2018-05-31T04:30:01.551Z,0.00
2018-05-31T04:31:01.586Z,0.00
2018-05-31T04:32:01.622Z,0.00
2018-05-31T04:33:01.659Z,0.00
2018-05-31T04:34:01.699Z,0.00
2018-05-31T04:35:01.739Z,0.00
2018-05-31T04:36:01.764Z,0.00
2018-05-31T04:37:01.801Z,0.00
2018-05-31T04:38:01.831Z,0.00
2018-05-31T04:39:01.867Z,0.00
2018-05-31T04:40:01.902Z,0.00
2018-05-31T04:41:01.938Z,0.00
2018-05-31T04:42:01.976Z,0.00
2018-05-31T04:43:02.009Z,0.00
2018-05-31T04:44:02.045Z,0.00
2018-05-31T04:45:02.082Z,0.00
2018-05-31T04:46:02.114Z,0.00
2018-05-31T04:47:55.592Z,0.00
2018-05-31T04:48:55.618Z,0.00
2018-05-31T04:50:49.624Z,0.00
2018-05-31T04:51:49.113Z,0.00
2018-05-31T04:53:42.597Z,0.00
2018-05-31T04:54:42.620Z,0.00
2018-05-31T04:56:36.101Z,4.00
2018-05-31T04:57:36.127Z,4.00
2018-05-31T04:59:29.609Z,0.00
2018-05-31T05:00:29.757Z,0.00
2018-05-31T05:02:23.144Z,4.00
2018-05-31T05:03:23.137Z,0.00
2018-05-31T05:05:16.618Z,0.00
2018-05-31T05:06:16.645Z,0.00
2018-05-31T05:08:10.130Z,0.00
2018-05-31T05:09:10.155Z,4.00
2018-05-31T05:11:03.657Z,4.00
2018-05-31T05:12:03.659Z,0.00
2018-05-31T05:13:57.139Z,0.00
2018-05-31T05:14:57.163Z,4.00
2018-05-31T05:16:50.647Z,4.00
2018-05-31T05:17:50.670Z,0.00
2018-05-31T05:19:44.141Z,0.00
2018-05-31T05:20:44.167Z,0.00
2018-05-31T05:22:37.644Z,0.00
2018-05-31T05:23:37.663Z,4.00
2018-05-31T05:25:31.172Z,0.00
2018-05-31T05:26:31.187Z,0.00
2018-05-31T05:28:24.639Z,0.00
2018-05-31T05:29:24.666Z,0.00
2018-05-31T05:31:18.147Z,0.00
2018-05-31T05:32:18.171Z,4.00
2018-05-31T05:34:11.646Z,0.00
2018-05-31T05:35:11.670Z,4.00
2018-05-31T05:37:05.154Z,0.00
2018-05-31T05:38:05.185Z,0.00
2018-05-31T05:39:58.659Z,4.00
2018-05-31T05:40:58.692Z,0.00
2018-05-31T05:42:52.168Z,0.00
2018-05-31T05:43:52.192Z,0.00
2018-05-31T05:45:45.673Z,0.00
2018-05-31T05:46:45.708Z,4.00
2018-05-31T05:48:38.691Z,4.00
2018-05-31T05:49:38.715Z,0.00
2018-05-31T05:51:32.191Z,0.00
2018-05-31T05:52:32.212Z,0.00
2018-05-31T05:54:25.693Z,0.00
2018-05-31T05:55:25.719Z,0.00
2018-05-31T05:57:19.229Z,0.00
2018-05-31T05:58:19.227Z,0.00
2018-05-31T06:00:12.709Z,0.00
2018-05-31T06:01:12.732Z,0.00
2018-05-31T06:03:06.217Z,0.00
2018-05-31T06:04:06.242Z,0.00
2018-05-31T06:05:59.713Z,0.00
2018-05-31T06:06:59.744Z,0.00
2018-05-31T06:08:53.220Z,0.00
2018-05-31T06:09:53.257Z,0.00
2018-05-31T06:11:46.731Z,0.00
2018-05-31T06:12:46.754Z,0.00
2018-05-31T06:14:40.238Z,0.00
2018-05-31T06:15:40.267Z,0.00
2018-05-31T06:17:33.733Z,0.00
2018-05-31T06:18:33.757Z,0.00
2018-05-31T06:20:27.240Z,0.00
2018-05-31T06:21:27.266Z,0.00
2018-05-31T06:23:20.741Z,0.00
2018-05-31T06:24:20.765Z,0.00
2018-05-31T06:26:14.324Z,0.00
2018-05-31T06:27:14.278Z,0.00
2018-05-31T06:29:07.764Z,0.00
2018-05-31T06:30:07.784Z,0.00
2018-05-31T06:32:01.267Z,0.00
2018-05-31T06:33:01.293Z,0.00
2018-05-31T06:34:54.774Z,0.00
2018-05-31T06:35:54.798Z,0.00
2018-05-31T06:37:48.281Z,0.00
2018-05-31T06:38:48.306Z,0.00
2018-05-31T06:40:41.789Z,0.00
2018-05-31T06:41:41.814Z,0.00
2018-05-31T06:43:35.298Z,0.00
2018-05-31T06:44:35.324Z,0.00
2018-05-31T06:46:28.806Z,0.00
2018-05-31T06:47:28.829Z,0.00
2018-05-31T06:49:22.304Z,0.00
2018-05-31T06:50:22.330Z,0.00
2018-05-31T06:52:16.335Z,0.00
2018-05-31T06:53:15.835Z,0.00
2018-05-31T06:55:09.317Z,4.00
2018-05-31T06:56:09.345Z,8.00
2018-05-31T06:58:02.825Z,8.00
2018-05-31T06:59:02.860Z,8.00
2018-05-31T07:00:56.369Z,8.00
2018-05-31T07:01:56.358Z,8.00
2018-05-31T07:03:49.845Z,8.00
2018-05-31T07:04:49.864Z,8.00
2018-05-31T07:06:43.340Z,4.00
2018-05-31T07:07:43.364Z,4.00
2018-05-31T07:09:36.850Z,4.00
2018-05-31T07:10:36.875Z,4.00
2018-05-31T07:12:30.357Z,4.00
2018-05-31T07:13:30.380Z,0.00
2018-05-31T07:15:23.861Z,4.00
2018-05-31T07:16:23.887Z,4.00
2018-05-31T07:18:17.369Z,4.00
2018-05-31T07:19:17.394Z,4.00
2018-05-31T07:21:14.909Z,4.00
2018-05-31T07:22:14.934Z,4.00
2018-05-31T07:24:07.924Z,4.00
2018-05-31T07:25:07.948Z,4.00
2018-05-31T07:27:00.939Z,0.00
2018-05-31T07:28:00.966Z,4.00
2018-05-31T07:29:54.459Z,0.00
2018-05-31T07:30:54.472Z,0.00
2018-05-31T07:32:47.952Z,4.00
2018-05-31T07:33:47.980Z,4.00
2018-05-31T07:35:40.971Z,4.00
2018-05-31T07:36:40.996Z,4.00
2018-05-31T07:38:34.479Z,4.00
2018-05-31T07:39:34.503Z,4.00
2018-05-31T07:41:27.985Z,4.00
2018-05-31T07:42:28.010Z,4.00
2018-05-31T07:44:21.539Z,24.00
2018-05-31T07:45:21.516Z,24.00
2018-05-31T07:47:14.552Z,28.00
2018-05-31T07:48:14.564Z,28.00
2018-05-31T07:50:08.046Z,28.00
2018-05-31T07:51:08.071Z,28.00
2018-05-31T07:53:01.553Z,24.00
2018-05-31T07:54:01.577Z,24.00
2018-05-31T07:55:55.062Z,28.00
2018-05-31T07:56:55.080Z,28.00
2018-05-31T07:58:48.571Z,24.00
2018-05-31T07:59:48.593Z,28.00
2018-05-31T08:01:42.147Z,28.00
2018-05-31T08:02:42.128Z,28.00
2018-05-31T08:04:35.614Z,28.00
2018-05-31T08:05:35.633Z,24.00
2018-05-31T08:07:40.790Z,28.00
2018-05-31T08:08:40.814Z,32.00
2018-05-31T08:10:34.299Z,28.00
2018-05-31T08:11:34.323Z,32.00
2018-05-31T08:13:27.802Z,32.00
2018-05-31T08:14:27.828Z,32.00
2018-05-31T08:16:21.300Z,28.00
2018-05-31T08:17:21.324Z,28.00
2018-05-31T08:19:14.797Z,32.00
2018-05-31T08:20:14.822Z,32.00
2018-05-31T08:22:07.813Z,28.00
2018-05-31T08:23:07.835Z,28.00
2018-05-31T08:25:01.326Z,28.00
2018-05-31T08:26:01.344Z,32.00
2018-05-31T08:27:54.826Z,32.00
2018-05-31T08:28:54.853Z,28.00
2018-05-31T08:30:48.332Z,28.00
2018-05-31T08:31:48.358Z,28.00
2018-05-31T08:33:41.841Z,24.00
2018-05-31T08:34:41.862Z,28.00
2018-05-31T08:36:35.352Z,24.00
2018-05-31T08:37:35.369Z,28.00
2018-05-31T08:39:28.852Z,28.00
2018-05-31T08:40:28.876Z,28.00
2018-05-31T08:42:22.359Z,28.00
2018-05-31T08:43:22.379Z,28.00
2018-05-31T08:45:15.867Z,28.00
2018-05-31T08:46:15.893Z,28.00
2018-05-31T08:48:09.377Z,28.00
2018-05-31T08:49:09.405Z,28.00
2018-05-31T08:51:02.907Z,28.00
2018-05-31T08:52:02.906Z,32.00
2018-05-31T08:53:56.391Z,28.00
2018-05-31T08:54:56.413Z,32.00
2018-05-31T08:56:49.898Z,32.00
2018-05-31T08:57:49.921Z,32.00
2018-05-31T08:59:43.407Z,32.00
2018-05-31T09:00:43.426Z,32.00
2018-05-31T09:02:36.912Z,32.00
2018-05-31T09:03:36.935Z,32.00
2018-05-31T09:04:36.971Z,36.00
2018-05-31T09:05:37.006Z,36.00
2018-05-31T09:06:37.043Z,32.00
2018-05-31T09:07:37.080Z,32.00
2018-05-31T09:08:37.113Z,32.00
2018-05-31T09:09:37.149Z,32.00
2018-05-31T09:10:37.187Z,36.00
2018-05-31T09:11:37.223Z,36.00
2018-05-31T09:12:37.257Z,32.00
2018-05-31T09:13:37.292Z,36.00
2018-05-31T09:14:37.333Z,32.00
2018-05-31T09:15:37.372Z,32.00
2018-05-31T09:16:37.401Z,36.00
2018-05-31T09:17:37.436Z,32.00
2018-05-31T09:18:37.478Z,32.00
2018-05-31T09:19:37.510Z,32.00
2018-05-31T09:20:37.543Z,32.00
2018-05-31T09:21:37.582Z,32.00
2018-05-31T09:22:37.620Z,28.00
2018-05-31T09:23:37.650Z,32.00
2018-05-31T09:24:37.691Z,28.00
2018-05-31T09:25:37.719Z,28.00
2018-05-31T09:26:37.764Z,28.00
2018-05-31T09:27:37.792Z,28.00
2018-05-31T09:28:37.856Z,32.00
2018-05-31T09:29:37.865Z,28.00
2018-05-31T09:30:37.905Z,28.00
2018-05-31T09:31:37.941Z,32.00
2018-05-31T09:32:37.973Z,32.00
2018-05-31T09:33:38.008Z,32.00
2018-05-31T09:34:38.054Z,36.00
2018-05-31T09:35:38.079Z,32.00
2018-05-31T09:36:38.116Z,36.00
2018-05-31T09:37:38.154Z,36.00
2018-05-31T09:38:38.186Z,32.00
2018-05-31T09:39:38.225Z,36.00
2018-05-31T09:40:38.259Z,36.00
2018-05-31T09:41:38.300Z,32.00
2018-05-31T09:42:38.344Z,36.00
2018-05-31T09:43:38.371Z,36.00
2018-05-31T09:44:38.404Z,36.00
2018-05-31T09:45:38.439Z,36.00
2018-05-31T09:46:38.485Z,36.00
2018-05-31T09:47:38.512Z,36.00
2018-05-31T09:48:38.548Z,36.00
2018-05-31T09:49:38.582Z,36.00
2018-05-31T09:50:38.619Z,36.00
2018-05-31T09:51:38.655Z,36.00
2018-05-31T09:52:38.692Z,32.00
2018-05-31T09:53:38.729Z,48.00
2018-05-31T09:54:38.791Z,48.00
2018-05-31T09:55:38.803Z,52.00
2018-05-31T09:56:38.833Z,56.00
2018-05-31T09:57:38.874Z,56.00
2018-05-31T09:58:38.908Z,60.00
2018-05-31T09:59:38.943Z,60.00
2018-05-31T10:00:38.977Z,64.00
2018-05-31T10:01:39.018Z,60.00
2018-05-31T10:02:39.255Z,56.00
2018-05-31T10:03:39.280Z,56.00
2018-05-31T10:04:39.190Z,60.00
2018-05-31T10:05:39.326Z,60.00
2018-05-31T10:06:39.193Z,60.00
2018-05-31T10:07:39.231Z,56.00
2018-05-31T10:08:39.267Z,52.00
2018-05-31T10:09:47.465Z,52.00
2018-05-31T10:11:33.314Z,56.00
2018-05-31T10:12:32.868Z,56.00
2018-05-31T10:13:32.866Z,52.00
2018-05-31T10:14:32.959Z,52.00
2018-05-31T10:15:33.108Z,52.00
2018-05-31T10:16:32.981Z,52.00
2018-05-31T10:17:33.024Z,56.00
2018-05-31T10:18:33.209Z,60.00
2018-05-31T10:19:33.071Z,56.00
2018-05-31T10:20:33.097Z,60.00
2018-05-31T10:21:33.140Z,56.00
2018-05-31T10:22:33.169Z,64.00
2018-05-31T10:23:33.204Z,60.00
2018-05-31T10:24:33.239Z,68.00
2018-05-31T10:25:33.275Z,64.00
2018-05-31T10:26:33.311Z,56.00
2018-05-31T10:27:33.392Z,60.00
2018-05-31T10:28:33.385Z,60.00
2018-05-31T10:29:33.422Z,60.00
2018-05-31T10:30:33.454Z,64.00
2018-05-31T10:31:33.494Z,52.00
2018-05-31T10:32:33.541Z,52.00
2018-05-31T10:33:33.562Z,52.00
2018-05-31T10:34:33.599Z,44.00
2018-05-31T10:35:33.635Z,44.00
2018-05-31T10:36:33.672Z,44.00
2018-05-31T10:37:33.708Z,52.00
2018-05-31T10:38:33.744Z,48.00
2018-05-31T10:39:33.779Z,56.00
2018-05-31T10:40:33.816Z,56.00
2018-05-31T10:41:33.934Z,52.00
2018-05-31T10:42:33.889Z,52.00
2018-05-31T10:43:33.925Z,52.00
2018-05-31T10:44:33.962Z,48.00
2018-05-31T10:45:34.000Z,48.00
2018-05-31T10:46:34.038Z,36.00
2018-05-31T10:47:34.067Z,44.00
2018-05-31T10:48:34.105Z,44.00
2018-05-31T10:50:27.576Z,44.00
2018-05-31T10:51:27.600Z,44.00
2018-05-31T10:53:21.078Z,44.00
2018-05-31T10:54:21.099Z,44.00
2018-05-31T10:55:21.135Z,48.00
2018-05-31T10:56:21.171Z,48.00
2018-05-31T10:57:21.206Z,44.00
2018-05-31T10:58:21.244Z,44.00
2018-05-31T10:59:21.320Z,48.00
2018-05-31T11:00:21.314Z,48.00
2018-05-31T11:01:21.352Z,48.00
2018-05-31T11:02:21.384Z,44.00
2018-05-31T11:03:21.421Z,48.00
2018-05-31T11:04:21.460Z,48.00
2018-05-31T11:05:21.496Z,48.00
2018-05-31T11:06:21.530Z,48.00
2018-05-31T11:07:21.571Z,48.00
2018-05-31T11:08:21.602Z,48.00
2018-05-31T11:09:21.644Z,48.00
2018-05-31T11:10:21.676Z,48.00
2018-05-31T11:11:21.712Z,48.00
2018-05-31T11:12:21.745Z,52.00
2018-05-31T11:13:21.782Z,48.00
2018-05-31T11:14:21.819Z,52.00
2018-05-31T11:15:21.855Z,52.00
2018-05-31T11:16:21.891Z,52.00
2018-05-31T11:17:21.931Z,48.00
2018-05-31T11:18:21.963Z,48.00
2018-05-31T11:19:21.998Z,48.00
2018-05-31T11:20:22.039Z,40.00
2018-05-31T11:21:22.072Z,56.00
2018-05-31T11:22:22.108Z,56.00
2018-05-31T11:23:22.143Z,56.00
2018-05-31T11:24:22.178Z,52.00
2018-05-31T11:25:22.216Z,52.00
2018-05-31T11:26:22.253Z,56.00
2018-05-31T11:27:22.288Z,56.00
2018-05-31T11:28:22.323Z,56.00
2018-05-31T11:29:22.359Z,52.00
2018-05-31T11:30:22.394Z,56.00
2018-05-31T11:31:22.434Z,56.00
2018-05-31T11:32:22.471Z,56.00
2018-05-31T11:33:22.506Z,56.00
2018-05-31T11:34:22.538Z,56.00
2018-05-31T11:35:22.575Z,60.00
2018-05-31T11:37:16.047Z,56.00
2018-05-31T11:38:16.075Z,60.00
2018-05-31T11:40:09.548Z,64.00
2018-05-31T11:41:09.570Z,60.00
2018-05-31T11:43:03.055Z,64.00
2018-05-31T11:44:03.081Z,64.00
2018-05-31T11:45:56.567Z,64.00
2018-05-31T11:46:56.591Z,48.00
2018-05-31T11:48:50.077Z,32.00
2018-05-31T11:49:50.098Z,32.00
2018-05-31T11:51:43.581Z,28.00
2018-05-31T11:52:43.606Z,28.00
2018-05-31T11:54:37.093Z,28.00
2018-05-31T11:55:37.115Z,32.00
2018-05-31T11:57:30.597Z,32.00
2018-05-31T11:58:30.647Z,32.00
2018-05-31T12:00:24.095Z,28.00
2018-05-31T12:01:24.134Z,32.00
2018-05-31T12:03:17.595Z,32.00
2018-05-31T12:04:17.612Z,32.00
2018-05-31T12:06:11.103Z,28.00
2018-05-31T12:07:11.131Z,32.00
2018-05-31T12:09:04.614Z,32.00
2018-05-31T12:10:04.639Z,36.00
2018-05-31T12:11:58.119Z,36.00
2018-05-31T12:12:58.229Z,44.00
2018-05-31T12:14:51.659Z,48.00
2018-05-31T12:15:51.641Z,48.00
2018-05-31T12:17:45.161Z,52.00
2018-05-31T12:18:45.184Z,64.00
2018-05-31T12:20:38.668Z,72.00
2018-05-31T12:21:38.694Z,76.00
2018-05-31T12:23:32.178Z,76.00
2018-05-31T12:24:32.200Z,80.00
2018-05-31T12:25:32.248Z,80.00
2018-05-31T12:26:32.488Z,84.00
2018-05-31T12:27:33.179Z,80.00
2018-05-31T12:28:32.350Z,52.00
2018-05-31T12:30:25.818Z,48.00
2018-05-31T12:31:25.844Z,48.00
2018-05-31T12:33:19.326Z,76.00
2018-05-31T12:34:19.353Z,76.00
2018-05-31T12:36:13.163Z,52.00
2018-05-31T12:37:12.861Z,76.00
2018-05-31T12:38:12.901Z,72.00
2018-05-31T12:39:12.935Z,72.00
2018-05-31T12:40:12.968Z,76.00
2018-05-31T12:41:13.005Z,76.00
2018-05-31T12:42:13.042Z,76.00
2018-05-31T12:43:13.075Z,72.00
2018-05-31T12:44:13.364Z,72.00
2018-05-31T12:45:13.150Z,76.00
2018-05-31T12:47:06.621Z,76.00
2018-05-31T12:48:06.645Z,72.00
2018-05-31T12:50:00.119Z,76.00
2018-05-31T12:51:00.143Z,72.00
2018-05-31T12:52:53.632Z,72.00
2018-05-31T12:53:53.652Z,76.00
2018-05-31T12:55:47.126Z,72.00
2018-05-31T12:56:47.148Z,76.00
2018-05-31T12:58:40.626Z,72.00
2018-05-31T12:59:40.648Z,72.00
2018-05-31T13:01:38.227Z,72.00
2018-05-31T13:02:38.257Z,76.00
2018-05-31T13:03:38.290Z,76.00
2018-05-31T13:04:38.325Z,80.00
2018-05-31T13:05:38.438Z,76.00
2018-05-31T13:06:38.398Z,76.00
2018-05-31T13:07:38.440Z,76.00
2018-05-31T13:08:38.473Z,80.00
2018-05-31T13:09:38.506Z,80.00
2018-05-31T13:10:38.545Z,76.00
2018-05-31T13:11:38.589Z,76.00
2018-05-31T13:12:38.615Z,76.00
2018-05-31T13:13:38.682Z,76.00
2018-05-31T13:14:38.687Z,76.00
2018-05-31T13:15:38.723Z,80.00
2018-05-31T13:16:38.759Z,84.00
2018-05-31T13:17:40.317Z,80.00
2018-05-31T13:18:38.833Z,80.00
2018-05-31T13:19:38.867Z,80.00
2018-05-31T13:20:39.236Z,80.00
2018-05-31T13:21:38.939Z,80.00
2018-05-31T13:22:38.997Z,80.00
2018-05-31T13:23:39.012Z,80.00
2018-05-31T13:25:32.496Z,84.00
2018-05-31T13:26:32.521Z,84.00
2018-05-31T13:28:25.516Z,84.00
2018-05-31T13:29:25.668Z,84.00
2018-05-31T13:31:19.036Z,84.00
2018-05-31T13:32:19.063Z,84.00
2018-05-31T13:33:19.109Z,80.00
2018-05-31T13:34:19.255Z,84.00
2018-05-31T13:36:12.608Z,84.00
2018-05-31T13:37:12.633Z,80.00
2018-05-31T13:39:06.965Z,76.00
2018-05-31T13:40:06.990Z,80.00
2018-05-31T13:42:00.470Z,84.00
2018-05-31T13:43:00.876Z,84.00
2018-05-31T13:44:53.981Z,84.00
2018-05-31T13:45:54.006Z,80.00
2018-05-31T13:46:54.043Z,80.00
2018-05-31T13:47:54.078Z,80.00
2018-05-31T13:49:47.554Z,76.00
2018-05-31T13:50:47.579Z,84.00
2018-05-31T13:52:41.064Z,88.00
2018-05-31T13:53:41.090Z,84.00
2018-05-31T13:55:35.715Z,88.00
2018-05-31T13:56:35.597Z,88.00
2018-05-31T13:58:29.081Z,84.00
2018-05-31T13:59:29.107Z,84.00
2018-05-31T14:01:22.645Z,84.00
2018-05-31T14:02:22.594Z,84.00
2018-05-31T14:04:16.084Z,84.00
2018-05-31T14:05:16.102Z,88.00
2018-05-31T14:07:09.593Z,80.00
2018-05-31T14:08:09.613Z,60.00
2018-05-31T14:10:03.098Z,72.00
2018-05-31T14:11:03.124Z,64.00
2018-05-31T14:12:56.812Z,68.00
2018-05-31T14:13:56.702Z,80.00
2018-05-31T14:15:51.072Z,80.00
2018-05-31T14:16:50.145Z,64.00
2018-05-31T14:18:43.619Z,80.00
2018-05-31T14:19:43.638Z,80.00
2018-05-31T14:21:37.649Z,80.00
2018-05-31T14:22:37.141Z,80.00
2018-05-31T14:24:30.665Z,84.00
2018-05-31T14:25:30.643Z,80.00
2018-05-31T14:27:24.119Z,84.00
2018-05-31T14:28:24.146Z,84.00
2018-05-31T14:29:24.176Z,84.00
2018-05-31T14:30:24.214Z,84.00
2018-05-31T14:31:24.248Z,80.00
2018-05-31T14:32:24.286Z,80.00
2018-05-31T14:34:17.763Z,80.00
2018-05-31T14:35:17.804Z,80.00
2018-05-31T14:37:11.270Z,80.00
2018-05-31T14:38:11.294Z,76.00
2018-05-31T14:39:11.328Z,80.00
2018-05-31T14:40:11.365Z,76.00
2018-05-31T14:42:04.844Z,76.00
2018-05-31T14:43:04.915Z,76.00
2018-05-31T14:44:58.342Z,72.00
2018-05-31T14:45:58.365Z,72.00
2018-05-31T14:47:51.847Z,76.00
2018-05-31T14:48:51.877Z,72.00
2018-05-31T14:50:45.882Z,72.00
2018-05-31T14:51:45.396Z,72.00
2018-05-31T14:53:38.909Z,72.00
2018-05-31T14:54:38.900Z,72.00
2018-05-31T14:56:32.389Z,72.00
2018-05-31T14:57:32.414Z,68.00
2018-05-31T14:59:25.894Z,72.00
2018-05-31T15:00:25.922Z,72.00
2018-05-31T15:02:18.912Z,68.00
2018-05-31T15:03:18.937Z,72.00
2018-05-31T15:05:12.033Z,68.00
2018-05-31T15:06:12.062Z,68.00
2018-05-31T15:07:12.096Z,68.00
2018-05-31T15:08:12.131Z,72.00
2018-05-31T15:09:12.168Z,68.00
2018-05-31T15:10:12.660Z,68.00
2018-05-31T15:11:12.240Z,68.00
2018-05-31T15:12:12.276Z,68.00
2018-05-31T15:13:12.315Z,68.00
2018-05-31T15:14:12.354Z,68.00
2018-05-31T15:15:12.386Z,64.00
2018-05-31T15:16:12.420Z,64.00
2018-05-31T15:17:12.469Z,64.00
2018-05-31T15:18:12.495Z,68.00
2018-05-31T15:19:12.537Z,64.00
2018-05-31T15:20:12.575Z,64.00
2018-05-31T15:21:12.605Z,64.00
2018-05-31T15:23:06.080Z,64.00
2018-05-31T15:24:06.104Z,68.00
2018-05-31T15:25:59.579Z,64.00
2018-05-31T15:26:59.607Z,64.00
2018-05-31T15:27:59.641Z,64.00
2018-05-31T15:28:59.675Z,60.00